sensor_id;sensor_type;location;lat;lon;timestamp;pressure;altitude;pressure_sealevel;temperature;humidity
9460;BME280;4768;42.664;23.240;2022-12-18T00:00:07;-9575.84;;;5.82;100.00
9460;BME280;4768;42.664;23.240;2022-12-18T00:02:36;-9574.56;;;5.78;100.00
9460;BME280;4768;42.664;23.240;2022-12-18T00:05:03;-9574.13;;;5.76;100.00
9460;BME280;4768;42.664;23.240;2022-12-18T00:07:30;-9572.72;;;5.71;100.00
9460;BME280;4768;42.664;23.240;2022-12-18T00:09:57;-9570.31;;;5.63;100.00
9460;BME280;4768;42.664;23.240;2022-12-18T00:12:23;-9566.91;;;5.51;100.00
9460;BME280;4768;42.664;23.240;2022-12-18T00:14:50;-9567.63;;;5.53;100.00
9460;BME280;4768;42.664;23.240;2022-12-18T00:17:17;-9567.34;;;5.52;100.00
9460;BME280;4768;42.664;23.240;2022-12-18T00:19:45;-9565.50;;;5.46;100.00
9460;BME280;4768;42.664;23.240;2022-12-18T00:22:12;-9565.38;;;5.45;100.00
9460;BME280;4768;42.664;23.240;2022-12-18T00:24:38;-9562.53;;;5.35;100.00
9460;BME280;4768;42.664;23.240;2022-12-18T00:27:05;-9561.25;;;5.31;100.00
9460;BME280;4768;42.664;23.240;2022-12-18T00:29:32;-9561.81;;;5.33;100.00
9460;BME280;4768;42.664;23.240;2022-12-18T00:31:59;-9561.69;;;5.32;100.00
9460;BME280;4768;42.664;23.240;2022-12-18T00:34:25;-9560.41;;;5.28;100.00
9460;BME280;4768;42.664;23.240;2022-12-18T00:36:53;-9557.03;;;5.16;100.00
9460;BME280;4768;42.664;23.240;2022-12-18T00:39:20;-9555.88;;;5.12;100.00
9460;BME280;4768;42.664;23.240;2022-12-18T00:41:47;-9555.31;;;5.10;100.00
9460;BME280;4768;42.664;23.240;2022-12-18T00:44:31;-9554.06;;;5.06;100.00
9460;BME280;4768;42.664;23.240;2022-12-18T00:46:58;-9553.22;;;5.03;100.00
9460;BME280;4768;42.664;23.240;2022-12-18T00:49:25;-9553.06;;;5.02;100.00
9460;BME280;4768;42.664;23.240;2022-12-18T00:51:57;-9553.47;;;5.04;100.00
9460;BME280;4768;42.664;23.240;2022-12-18T00:54:24;-9551.94;;;4.98;100.00
9460;BME280;4768;42.664;23.240;2022-12-18T00:56:50;-9550.94;;;4.95;100.00
9460;BME280;4768;42.664;23.240;2022-12-18T00:59:17;-9550.09;;;4.92;100.00
9460;BME280;4768;42.664;23.240;2022-12-18T01:01:44;-9547.41;;;4.82;100.00
9460;BME280;4768;42.664;23.240;2022-12-18T01:04:11;-9547.69;;;4.83;100.00
9460;BME280;4768;42.664;23.240;2022-12-18T01:06:38;-9546.00;;;4.78;100.00
9460;BME280;4768;42.664;23.240;2022-12-18T01:09:06;-9543.44;;;4.69;100.00
9460;BME280;4768;42.664;23.240;2022-12-18T01:11:33;-9541.47;;;4.62;100.00
9460;BME280;4768;42.664;23.240;2022-12-18T01:13:59;-9540.19;;;4.57;100.00
9460;BME280;4768;42.664;23.240;2022-12-18T01:16:26;-9540.63;;;4.59;100.00
9460;BME280;4768;42.664;23.240;2022-12-18T01:18:54;-9540.47;;;4.58;100.00
9460;BME280;4768;42.664;23.240;2022-12-18T01:21:22;-9539.34;;;4.54;100.00
9460;BME280;4768;42.664;23.240;2022-12-18T01:23:51;-9539.34;;;4.54;100.00
9460;BME280;4768;42.664;23.240;2022-12-18T01:26:20;-9538.78;;;4.52;100.00
9460;BME280;4768;42.664;23.240;2022-12-18T01:28:47;-9537.22;;;4.47;100.00
9460;BME280;4768;42.664;23.240;2022-12-18T01:31:17;-9536.25;;;4.43;100.00
9460;BME280;4768;42.664;23.240;2022-12-18T01:33:45;-9534.25;;;4.36;100.00
9460;BME280;4768;42.664;23.240;2022-12-18T01:36:16;-9532.84;;;4.31;100.00
9460;BME280;4768;42.664;23.240;2022-12-18T01:38:44;-9532.16;;;4.29;100.00
9460;BME280;4768;42.664;23.240;2022-12-18T01:41:11;-9531.00;;;4.25;100.00
9460;BME280;4768;42.664;23.240;2022-12-18T01:43:51;-9531.16;;;4.26;100.00
9460;BME280;4768;42.664;23.240;2022-12-18T01:46:19;-9530.44;;;4.23;100.00
9460;BME280;4768;42.664;23.240;2022-12-18T01:48:48;-9528.91;;;4.18;100.00
9460;BME280;4768;42.664;23.240;2022-12-18T01:51:16;-9529.19;;;4.19;100.00
9460;BME280;4768;42.664;23.240;2022-12-18T01:53:43;-9529.19;;;4.19;100.00
9460;BME280;4768;42.664;23.240;2022-12-18T01:56:13;-9530.59;;;4.24;100.00
9460;BME280;4768;42.664;23.240;2022-12-18T01:58:48;-9531.88;;;4.28;100.00
9460;BME280;4768;42.664;23.240;2022-12-18T02:01:17;-9532.44;;;4.30;100.00
9460;BME280;4768;42.664;23.240;2022-12-18T02:03:44;-9532.84;;;4.31;100.00
9460;BME280;4768;42.664;23.240;2022-12-18T02:06:15;-9533.28;;;4.33;100.00
9460;BME280;4768;42.664;23.240;2022-12-18T02:08:55;-9532.56;;;4.31;100.00
9460;BME280;4768;42.664;23.240;2022-12-18T02:11:35;-9532.44;;;4.30;100.00
9460;BME280;4768;42.664;23.240;2022-12-18T02:14:17;-9534.41;;;4.37;100.00
9460;BME280;4768;42.664;23.240;2022-12-18T02:16:49;-9533.56;;;4.34;100.00
9460;BME280;4768;42.664;23.240;2022-12-18T02:19:47;-9533.84;;;4.35;100.00
9460;BME280;4768;42.664;23.240;2022-12-18T02:22:27;-9533.28;;;4.33;100.00
9460;BME280;4768;42.664;23.240;2022-12-18T02:25:21;-9532.28;;;4.30;100.00
9460;BME280;4768;42.664;23.240;2022-12-18T02:27:54;-9532.72;;;4.31;100.00
9460;BME280;4768;42.664;23.240;2022-12-18T02:30:22;-9531.00;;;4.25;100.00
9460;BME280;4768;42.664;23.240;2022-12-18T02:32:51;-9531.31;;;4.26;100.00
9460;BME280;4768;42.664;23.240;2022-12-18T02:35:22;-9530.88;;;4.25;100.00
9460;BME280;4768;42.664;23.240;2022-12-18T02:37:49;-9530.31;;;4.23;100.00
9460;BME280;4768;42.664;23.240;2022-12-18T02:40:17;-9528.06;;;4.15;100.00
9460;BME280;4768;42.664;23.240;2022-12-18T02:42:45;-9527.91;;;4.14;100.00
9460;BME280;4768;42.664;23.240;2022-12-18T02:45:13;-9527.06;;;4.11;100.00
9460;BME280;4768;42.664;23.240;2022-12-18T02:47:43;-9525.38;;;4.05;100.00
9460;BME280;4768;42.664;23.240;2022-12-18T02:50:16;-9525.94;;;4.07;100.00
9460;BME280;4768;42.664;23.240;2022-12-18T02:52:53;-9525.09;;;4.04;100.00
9460;BME280;4768;42.664;23.240;2022-12-18T02:55:29;-9523.53;;;3.99;100.00
9460;BME280;4768;42.664;23.240;2022-12-18T02:58:03;-9524.66;;;4.03;100.00
9460;BME280;4768;42.664;23.240;2022-12-18T03:00:36;-9524.22;;;4.01;100.00
9460;BME280;4768;42.664;23.240;2022-12-18T03:03:07;-9524.66;;;4.03;100.00
9460;BME280;4768;42.664;23.240;2022-12-18T03:05:39;-9525.09;;;4.04;100.00
9460;BME280;4768;42.664;23.240;2022-12-18T03:08:10;-9524.38;;;4.02;100.00
9460;BME280;4768;42.664;23.240;2022-12-18T03:10:44;-9524.78;;;4.03;100.00
9460;BME280;4768;42.664;23.240;2022-12-18T03:13:15;-9523.25;;;3.98;100.00
9460;BME280;4768;42.664;23.240;2022-12-18T03:15:47;-9521.69;;;3.92;100.00
9460;BME280;4768;42.664;23.240;2022-12-18T03:18:17;-9520.13;;;3.87;100.00
9460;BME280;4768;42.664;23.240;2022-12-18T03:20:47;-9520.72;;;3.89;100.00
9460;BME280;4768;42.664;23.240;2022-12-18T03:23:18;-9521.13;;;3.90;100.00
9460;BME280;4768;42.664;23.240;2022-12-18T03:25:49;-9518.88;;;3.83;100.00
9460;BME280;4768;42.664;23.240;2022-12-18T03:28:21;-9519.56;;;3.85;100.00
9460;BME280;4768;42.664;23.240;2022-12-18T03:30:52;-9519.72;;;3.85;100.00
9460;BME280;4768;42.664;23.240;2022-12-18T03:33:25;-9518.16;;;3.80;100.00
9460;BME280;4768;42.664;23.240;2022-12-18T03:35:53;-9517.59;;;3.78;100.00
9460;BME280;4768;42.664;23.240;2022-12-18T03:38:20;-9516.03;;;3.73;100.00
9460;BME280;4768;42.664;23.240;2022-12-18T03:40:56;-9515.63;;;3.71;100.00
9460;BME280;4768;42.664;23.240;2022-12-18T03:43:32;-9514.22;;;3.66;100.00
9460;BME280;4768;42.664;23.240;2022-12-18T03:46:05;-9514.78;;;3.68;100.00
9460;BME280;4768;42.664;23.240;2022-12-18T03:48:38;-9515.47;;;3.71;100.00
9460;BME280;4768;42.664;23.240;2022-12-18T03:51:10;-9515.47;;;3.71;100.00
9460;BME280;4768;42.664;23.240;2022-12-18T03:53:44;-9513.63;;;3.64;100.00
9460;BME280;4768;42.664;23.240;2022-12-18T03:56:16;-9514.22;;;3.66;100.00
9460;BME280;4768;42.664;23.240;2022-12-18T03:58:44;-9514.22;;;3.66;100.00
9460;BME280;4768;42.664;23.240;2022-12-18T04:01:15;-9514.50;;;3.67;100.00
9460;BME280;4768;42.664;23.240;2022-12-18T04:03:43;-9514.22;;;3.66;100.00
9460;BME280;4768;42.664;23.240;2022-12-18T04:06:13;-9512.94;;;3.62;100.00
9460;BME280;4768;42.664;23.240;2022-12-18T04:08:41;-9512.78;;;3.61;100.00
9460;BME280;4768;42.664;23.240;2022-12-18T04:11:08;-9511.81;;;3.58;100.00
9460;BME280;4768;42.664;23.240;2022-12-18T04:13:37;-9512.66;;;3.61;100.00
9460;BME280;4768;42.664;23.240;2022-12-18T04:16:04;-9512.50;;;3.60;100.00
9460;BME280;4768;42.664;23.240;2022-12-18T04:18:33;-9510.97;;;3.55;100.00
9460;BME280;4768;42.664;23.240;2022-12-18T04:21:00;-9510.53;;;3.53;100.00
9460;BME280;4768;42.664;23.240;2022-12-18T04:23:26;-9510.81;;;3.54;100.00
9460;BME280;4768;42.664;23.240;2022-12-18T04:25:53;-9509.53;;;3.50;100.00
9460;BME280;4768;42.664;23.240;2022-12-18T04:28:20;-9509.69;;;3.50;100.00
9460;BME280;4768;42.664;23.240;2022-12-18T04:30:47;-9509.97;;;3.51;100.00
9460;BME280;4768;42.664;23.240;2022-12-18T04:33:17;-9509.84;;;3.51;100.00
9460;BME280;4768;42.664;23.240;2022-12-18T04:35:45;-9509.25;;;3.49;100.00
9460;BME280;4768;42.664;23.240;2022-12-18T04:38:11;-9508.41;;;3.46;100.00
9460;BME280;4768;42.664;23.240;2022-12-18T04:40:39;-9509.13;;;3.48;100.00
9460;BME280;4768;42.664;23.240;2022-12-18T04:43:05;-9509.41;;;3.49;100.00
9460;BME280;4768;42.664;23.240;2022-12-18T04:45:32;-9508.13;;;3.45;100.00
9460;BME280;4768;42.664;23.240;2022-12-18T04:48:00;-9509.25;;;3.49;100.00
9460;BME280;4768;42.664;23.240;2022-12-18T04:50:27;-9508.97;;;3.48;100.00
9460;BME280;4768;42.664;23.240;2022-12-18T04:52:55;-9507.16;;;3.41;100.00
9460;BME280;4768;42.664;23.240;2022-12-18T04:55:22;-9508.00;;;3.44;100.00
9460;BME280;4768;42.664;23.240;2022-12-18T04:57:49;-9508.13;;;3.45;100.00
9460;BME280;4768;42.664;23.240;2022-12-18T05:00:16;-9508.56;;;3.46;100.00
9460;BME280;4768;42.664;23.240;2022-12-18T05:02:43;-9508.13;;;3.45;100.00
9460;BME280;4768;42.664;23.240;2022-12-18T05:05:10;-9507.72;;;3.43;100.00
9460;BME280;4768;42.664;23.240;2022-12-18T05:07:37;-9509.13;;;3.48;100.00
9460;BME280;4768;42.664;23.240;2022-12-18T05:10:06;-9510.41;;;3.53;100.00
9460;BME280;4768;42.664;23.240;2022-12-18T05:12:32;-9509.25;;;3.49;100.00
9460;BME280;4768;42.664;23.240;2022-12-18T05:15:19;-9510.41;;;3.53;100.00
9460;BME280;4768;42.664;23.240;2022-12-18T05:17:46;-9510.09;;;3.52;100.00
9460;BME280;4768;42.664;23.240;2022-12-18T05:20:13;-9510.41;;;3.53;100.00
9460;BME280;4768;42.664;23.240;2022-12-18T05:22:40;-9509.53;;;3.50;100.00
9460;BME280;4768;42.664;23.240;2022-12-18T05:25:08;-9509.53;;;3.50;100.00
9460;BME280;4768;42.664;23.240;2022-12-18T05:27:35;-9509.41;;;3.49;100.00
9460;BME280;4768;42.664;23.240;2022-12-18T05:30:02;-9508.28;;;3.45;100.00
9460;BME280;4768;42.664;23.240;2022-12-18T05:32:29;-9506.59;;;3.39;100.00
9460;BME280;4768;42.664;23.240;2022-12-18T05:34:56;-9506.72;;;3.40;100.00
9460;BME280;4768;42.664;23.240;2022-12-18T05:37:23;-9506.72;;;3.40;100.00
9460;BME280;4768;42.664;23.240;2022-12-18T05:39:49;-9507.16;;;3.41;100.00
9460;BME280;4768;42.664;23.240;2022-12-18T05:42:17;-9508.00;;;3.44;100.00
9460;BME280;4768;42.664;23.240;2022-12-18T05:44:44;-9508.00;;;3.44;100.00
9460;BME280;4768;42.664;23.240;2022-12-18T05:47:11;-9507.44;;;3.42;100.00
9460;BME280;4768;42.664;23.240;2022-12-18T05:49:38;-9507.84;;;3.44;100.00
9460;BME280;4768;42.664;23.240;2022-12-18T05:52:04;-9508.84;;;3.47;100.00
9460;BME280;4768;42.664;23.240;2022-12-18T05:54:31;-9506.44;;;3.39;100.00
9460;BME280;4768;42.664;23.240;2022-12-18T05:56:58;-9504.19;;;3.31;100.00
9460;BME280;4768;42.664;23.240;2022-12-18T05:59:26;-9503.19;;;3.28;100.00
9460;BME280;4768;42.664;23.240;2022-12-18T06:01:53;-9502.34;;;3.25;100.00
9460;BME280;4768;42.664;23.240;2022-12-18T06:04:20;-9502.06;;;3.24;100.00
9460;BME280;4768;42.664;23.240;2022-12-18T06:06:46;-9500.78;;;3.19;100.00
9460;BME280;4768;42.664;23.240;2022-12-18T06:09:13;-9500.09;;;3.17;100.00
9460;BME280;4768;42.664;23.240;2022-12-18T06:11:40;-9500.09;;;3.17;100.00
9460;BME280;4768;42.664;23.240;2022-12-18T06:14:07;-9499.81;;;3.16;100.00
9460;BME280;4768;42.664;23.240;2022-12-18T06:16:35;-9499.66;;;3.15;100.00
9460;BME280;4768;42.664;23.240;2022-12-18T06:19:03;-9498.53;;;3.11;100.00
9460;BME280;4768;42.664;23.240;2022-12-18T06:21:30;-9498.38;;;3.11;100.00
9460;BME280;4768;42.664;23.240;2022-12-18T06:23:58;-9498.09;;;3.10;100.00
9460;BME280;4768;42.664;23.240;2022-12-18T06:26:25;-9498.38;;;3.11;100.00
9460;BME280;4768;42.664;23.240;2022-12-18T06:28:51;-9499.38;;;3.14;100.00
9460;BME280;4768;42.664;23.240;2022-12-18T06:31:18;-9499.81;;;3.16;100.00
9460;BME280;4768;42.664;23.240;2022-12-18T06:33:46;-9497.69;;;3.08;100.00
9460;BME280;4768;42.664;23.240;2022-12-18T06:36:13;-9499.25;;;3.14;100.00
9460;BME280;4768;42.664;23.240;2022-12-18T06:38:42;-9498.25;;;3.10;100.00
9460;BME280;4768;42.664;23.240;2022-12-18T06:41:10;-9498.09;;;3.10;100.00
9460;BME280;4768;42.664;23.240;2022-12-18T06:43:37;-9498.97;;;3.13;100.00
9460;BME280;4768;42.664;23.240;2022-12-18T06:46:04;-9498.25;;;3.10;100.00
9460;BME280;4768;42.664;23.240;2022-12-18T06:48:31;-9499.53;;;3.15;100.00
9460;BME280;4768;42.664;23.240;2022-12-18T06:50:59;-9497.13;;;3.06;100.00
9460;BME280;4768;42.664;23.240;2022-12-18T06:53:26;-9497.53;;;3.08;100.00
9460;BME280;4768;42.664;23.240;2022-12-18T06:55:59;-9498.66;;;3.12;100.00
9460;BME280;4768;42.664;23.240;2022-12-18T06:58:27;-9500.66;;;3.19;100.00
9460;BME280;4768;42.664;23.240;2022-12-18T07:00:53;-9502.06;;;3.24;100.00
9460;BME280;4768;42.664;23.240;2022-12-18T07:03:20;-9503.91;;;3.30;100.00
9460;BME280;4768;42.664;23.240;2022-12-18T07:05:47;-9503.91;;;3.30;100.00
9460;BME280;4768;42.664;23.240;2022-12-18T07:08:15;-9503.47;;;3.29;100.00
9460;BME280;4768;42.664;23.240;2022-12-18T07:10:42;-9504.31;;;3.32;100.00
9460;BME280;4768;42.664;23.240;2022-12-18T07:13:08;-9505.16;;;3.35;100.00
9460;BME280;4768;42.664;23.240;2022-12-18T07:15:35;-9504.88;;;3.34;100.00
9460;BME280;4768;42.664;23.240;2022-12-18T07:18:03;-9502.34;;;3.25;100.00
9460;BME280;4768;42.664;23.240;2022-12-18T07:20:29;-9503.34;;;3.28;100.00
9460;BME280;4768;42.664;23.240;2022-12-18T07:22:56;-9503.63;;;3.29;100.00
9460;BME280;4768;42.664;23.240;2022-12-18T07:25:24;-9504.75;;;3.33;100.00
9460;BME280;4768;42.664;23.240;2022-12-18T07:27:51;-9504.75;;;3.33;100.00
9460;BME280;4768;42.664;23.240;2022-12-18T07:30:17;-9503.63;;;3.29;100.00
9460;BME280;4768;42.664;23.240;2022-12-18T07:32:44;-9504.75;;;3.33;100.00
9460;BME280;4768;42.664;23.240;2022-12-18T07:35:11;-9504.19;;;3.31;100.00
9460;BME280;4768;42.664;23.240;2022-12-18T07:37:37;-9504.88;;;3.34;100.00
9460;BME280;4768;42.664;23.240;2022-12-18T07:40:05;-9504.88;;;3.34;100.00
9460;BME280;4768;42.664;23.240;2022-12-18T07:42:34;-9505.44;;;3.35;100.00
9460;BME280;4768;42.664;23.240;2022-12-18T07:45:02;-9506.88;;;3.40;100.00
9460;BME280;4768;42.664;23.240;2022-12-18T07:47:29;-9505.72;;;3.36;100.00
9460;BME280;4768;42.664;23.240;2022-12-18T07:49:55;-9507.16;;;3.41;100.00
9460;BME280;4768;42.664;23.240;2022-12-18T07:52:22;-9506.59;;;3.39;100.00
9460;BME280;4768;42.664;23.240;2022-12-18T07:54:49;-9508.13;;;3.45;100.00
9460;BME280;4768;42.664;23.240;2022-12-18T07:57:16;-9507.84;;;3.44;100.00
9460;BME280;4768;42.664;23.240;2022-12-18T07:59:44;-9508.56;;;3.46;100.00
9460;BME280;4768;42.664;23.240;2022-12-18T08:02:11;-9507.44;;;3.42;100.00
9460;BME280;4768;42.664;23.240;2022-12-18T08:04:38;-9508.00;;;3.44;100.00
9460;BME280;4768;42.664;23.240;2022-12-18T08:07:04;-9507.00;;;3.41;100.00
9460;BME280;4768;42.664;23.240;2022-12-18T08:09:31;-9506.16;;;3.38;100.00
9460;BME280;4768;42.664;23.240;2022-12-18T08:11:58;-9505.16;;;3.35;100.00
9460;BME280;4768;42.664;23.240;2022-12-18T08:14:24;-9508.13;;;3.45;100.00
9460;BME280;4768;42.664;23.240;2022-12-18T08:16:52;-9503.75;;;3.30;100.00
9460;BME280;4768;42.664;23.240;2022-12-18T08:19:19;-9499.81;;;3.16;100.00
9460;BME280;4768;42.664;23.240;2022-12-18T08:21:46;-9497.81;;;3.09;100.00
9460;BME280;4768;42.664;23.240;2022-12-18T08:24:12;-9495.72;;;3.01;100.00
9460;BME280;4768;42.664;23.240;2022-12-18T08:26:39;-9493.59;;;2.94;100.00
9460;BME280;4768;42.664;23.240;2022-12-18T08:29:06;-9495.44;;;3.00;100.00
9460;BME280;4768;42.664;23.240;2022-12-18T08:31:33;-9495.28;;;3.00;100.00
9460;BME280;4768;42.664;23.240;2022-12-18T08:34:01;-9494.88;;;2.98;100.00
9460;BME280;4768;42.664;23.240;2022-12-18T08:36:27;-9497.13;;;3.06;100.00
9460;BME280;4768;42.664;23.240;2022-12-18T08:38:54;-9497.53;;;3.08;100.00
9460;BME280;4768;42.664;23.240;2022-12-18T08:41:21;-9496.56;;;3.04;100.00
9460;BME280;4768;42.664;23.240;2022-12-18T08:43:48;-9496.69;;;3.05;100.00
9460;BME280;4768;42.664;23.240;2022-12-18T08:46:34;-9496.84;;;3.05;100.00
9460;BME280;4768;42.664;23.240;2022-12-18T08:49:03;-9497.53;;;3.08;100.00
9460;BME280;4768;42.664;23.240;2022-12-18T08:51:31;-9497.69;;;3.08;100.00
9460;BME280;4768;42.664;23.240;2022-12-18T08:53:58;-9492.47;;;2.90;100.00
9460;BME280;4768;42.664;23.240;2022-12-18T08:56:25;-9490.06;;;2.82;100.00
9460;BME280;4768;42.664;23.240;2022-12-18T08:58:52;-9488.94;;;2.78;100.00
9460;BME280;4768;42.664;23.240;2022-12-18T09:01:20;-9492.03;;;2.88;100.00
9460;BME280;4768;42.664;23.240;2022-12-18T09:03:47;-9491.91;;;2.88;100.00
9460;BME280;4768;42.664;23.240;2022-12-18T09:06:15;-9491.91;;;2.88;100.00
9460;BME280;4768;42.664;23.240;2022-12-18T09:08:42;-9488.22;;;2.75;100.00
9460;BME280;4768;42.664;23.240;2022-12-18T09:11:13;-9491.34;;;2.86;100.00
9460;BME280;4768;42.664;23.240;2022-12-18T09:13:40;-9489.22;;;2.79;100.00
9460;BME280;4768;42.664;23.240;2022-12-18T09:16:07;-9490.63;;;2.84;100.00
9460;BME280;4768;42.664;23.240;2022-12-18T09:18:34;-9492.75;;;2.91;100.00
9460;BME280;4768;42.664;23.240;2022-12-18T09:21:07;-9490.50;;;2.83;100.00
9460;BME280;4768;42.664;23.240;2022-12-18T09:23:36;-9488.78;;;2.77;100.00
9460;BME280;4768;42.664;23.240;2022-12-18T09:26:02;-9489.63;;;2.80;100.00
9460;BME280;4768;42.664;23.240;2022-12-18T09:28:29;-9490.50;;;2.83;100.00
9460;BME280;4768;42.664;23.240;2022-12-18T09:30:56;-9490.50;;;2.83;100.00
9460;BME280;4768;42.664;23.240;2022-12-18T09:33:23;-9491.47;;;2.87;100.00
9460;BME280;4768;42.664;23.240;2022-12-18T09:35:49;-9491.34;;;2.86;100.00
9460;BME280;4768;42.664;23.240;2022-12-18T09:38:18;-9496.00;;;3.02;100.00
9460;BME280;4768;42.664;23.240;2022-12-18T09:40:48;-9498.53;;;3.11;100.00
9460;BME280;4768;42.664;23.240;2022-12-18T09:43:19;-9498.38;;;3.11;100.00
9460;BME280;4768;42.664;23.240;2022-12-18T09:45:49;-9497.53;;;3.08;100.00
9460;BME280;4768;42.664;23.240;2022-12-18T09:48:23;-9503.47;;;3.29;100.00
9460;BME280;4768;42.664;23.240;2022-12-18T09:50:54;-9503.19;;;3.28;100.00
9460;BME280;4768;42.664;23.240;2022-12-18T09:53:24;-9509.41;;;3.49;100.00
9460;BME280;4768;42.664;23.240;2022-12-18T09:55:54;-9508.13;;;3.45;100.00
9460;BME280;4768;42.664;23.240;2022-12-18T09:58:28;-9505.44;;;3.35;100.00
9460;BME280;4768;42.664;23.240;2022-12-18T10:00:57;-9504.88;;;3.34;100.00
9460;BME280;4768;42.664;23.240;2022-12-18T10:03:23;-9505.72;;;3.36;100.00
9460;BME280;4768;42.664;23.240;2022-12-18T10:05:59;-9505.72;;;3.36;100.00
9460;BME280;4768;42.664;23.240;2022-12-18T10:08:35;-9501.78;;;3.23;100.00
9460;BME280;4768;42.664;23.240;2022-12-18T10:11:21;-9503.75;;;3.30;100.00
9460;BME280;4768;42.664;23.240;2022-12-18T10:13:53;-9509.41;;;3.49;100.00
9460;BME280;4768;42.664;23.240;2022-12-18T10:16:29;-9505.72;;;3.36;100.00
9460;BME280;4768;42.664;23.240;2022-12-18T10:19:12;-9504.03;;;3.31;100.00
9460;BME280;4768;42.664;23.240;2022-12-18T10:21:45;-9509.97;;;3.51;100.00
9460;BME280;4768;42.664;23.240;2022-12-18T10:24:19;-9502.06;;;3.24;100.00
9460;BME280;4768;42.664;23.240;2022-12-18T10:26:48;-9503.06;;;3.27;100.00
9460;BME280;4768;42.664;23.240;2022-12-18T10:29:15;-9505.72;;;3.36;100.00
9460;BME280;4768;42.664;23.240;2022-12-18T10:31:42;-9502.34;;;3.25;100.00
9460;BME280;4768;42.664;23.240;2022-12-18T10:34:10;-9502.47;;;3.25;100.00
9460;BME280;4768;42.664;23.240;2022-12-18T10:36:37;-9502.78;;;3.26;100.00
9460;BME280;4768;42.664;23.240;2022-12-18T10:39:18;-9504.47;;;3.32;100.00
9460;BME280;4768;42.664;23.240;2022-12-18T10:41:45;-9505.16;;;3.35;100.00
9460;BME280;4768;42.664;23.240;2022-12-18T10:44:16;-9508.97;;;3.48;100.00
9460;BME280;4768;42.664;23.240;2022-12-18T10:46:45;-9505.88;;;3.37;100.00
9460;BME280;4768;42.664;23.240;2022-12-18T10:49:20;-9505.03;;;3.34;100.00
9460;BME280;4768;42.664;23.240;2022-12-18T10:51:48;-9512.50;;;3.60;100.00
9460;BME280;4768;42.664;23.240;2022-12-18T10:54:17;-9513.06;;;3.62;100.00
9460;BME280;4768;42.664;23.240;2022-12-18T10:56:45;-9518.72;;;3.82;100.00
9460;BME280;4768;42.664;23.240;2022-12-18T10:59:15;-9520.00;;;3.86;100.00
9460;BME280;4768;42.664;23.240;2022-12-18T11:01:47;-9521.41;;;3.91;100.00
9460;BME280;4768;42.664;23.240;2022-12-18T11:04:17;-9522.69;;;3.96;100.00
9460;BME280;4768;42.664;23.240;2022-12-18T11:06:54;-9519.28;;;3.84;100.00
9460;BME280;4768;42.664;23.240;2022-12-18T11:09:22;-9517.16;;;3.77;100.00
9460;BME280;4768;42.664;23.240;2022-12-18T11:11:49;-9515.75;;;3.72;100.00
9460;BME280;4768;42.664;23.240;2022-12-18T11:14:22;-9516.59;;;3.75;100.00
9460;BME280;4768;42.664;23.240;2022-12-18T11:16:50;-9516.19;;;3.73;100.00
9460;BME280;4768;42.664;23.240;2022-12-18T11:19:28;-9509.69;;;3.50;100.00
9460;BME280;4768;42.664;23.240;2022-12-18T11:21:56;-9513.06;;;3.62;100.00
9460;BME280;4768;42.664;23.240;2022-12-18T11:24:28;-9512.78;;;3.61;100.00
9460;BME280;4768;42.664;23.240;2022-12-18T11:26:56;-9511.38;;;3.56;100.00
9460;BME280;4768;42.664;23.240;2022-12-18T11:29:31;-9509.25;;;3.49;100.00
9460;BME280;4768;42.664;23.240;2022-12-18T11:35:03;-9504.19;;;3.31;100.00
9460;BME280;4768;42.664;23.240;2022-12-18T11:37:36;-9510.53;;;3.53;100.00
9460;BME280;4768;42.664;23.240;2022-12-18T11:40:09;-9507.56;;;3.43;100.00
9460;BME280;4768;42.664;23.240;2022-12-18T11:42:41;-9509.84;;;3.51;100.00
9460;BME280;4768;42.664;23.240;2022-12-18T11:45:24;-9510.69;;;3.54;100.00
9460;BME280;4768;42.664;23.240;2022-12-18T11:47:56;-9508.13;;;3.45;100.00
9460;BME280;4768;42.664;23.240;2022-12-18T11:50:28;-9505.03;;;3.34;100.00
9460;BME280;4768;42.664;23.240;2022-12-18T11:52:56;-9507.00;;;3.41;100.00
9460;BME280;4768;42.664;23.240;2022-12-18T11:55:30;-9506.88;;;3.40;100.00
9460;BME280;4768;42.664;23.240;2022-12-18T11:58:05;-9509.13;;;3.48;100.00
9460;BME280;4768;42.664;23.240;2022-12-18T12:00:39;-9512.50;;;3.60;100.00
9460;BME280;4768;42.664;23.240;2022-12-18T12:06:08;-9511.25;;;3.56;100.00
9460;BME280;4768;42.664;23.240;2022-12-18T12:08:51;-9513.63;;;3.64;100.00
9460;BME280;4768;42.664;23.240;2022-12-18T12:11:27;-9515.06;;;3.69;100.00
9460;BME280;4768;42.664;23.240;2022-12-18T12:14:12;-9510.41;;;3.53;100.00
9460;BME280;4768;42.664;23.240;2022-12-18T12:16:48;-9512.50;;;3.60;100.00
9460;BME280;4768;42.664;23.240;2022-12-18T12:19:30;-9513.50;;;3.64;100.00
9460;BME280;4768;42.664;23.240;2022-12-18T12:22:07;-9513.78;;;3.65;100.00
9460;BME280;4768;42.664;23.240;2022-12-18T12:24:44;-9512.50;;;3.60;100.00
9460;BME280;4768;42.664;23.240;2022-12-18T12:27:19;-9516.19;;;3.73;100.00
9460;BME280;4768;42.664;23.240;2022-12-18T12:29:58;-9515.91;;;3.72;100.00
9460;BME280;4768;42.664;23.240;2022-12-18T12:32:39;-9513.78;;;3.65;100.00
9460;BME280;4768;42.664;23.240;2022-12-18T12:35:18;-9512.09;;;3.59;100.00
9460;BME280;4768;42.664;23.240;2022-12-18T12:38:00;-9512.09;;;3.59;100.00
9460;BME280;4768;42.664;23.240;2022-12-18T12:40:35;-9511.38;;;3.56;100.00
9460;BME280;4768;42.664;23.240;2022-12-18T12:43:07;-9513.91;;;3.65;100.00
9460;BME280;4768;42.664;23.240;2022-12-18T12:45:42;-9512.22;;;3.59;100.00
9460;BME280;4768;42.664;23.240;2022-12-18T12:48:17;-9512.22;;;3.59;100.00
9460;BME280;4768;42.664;23.240;2022-12-18T12:50:46;-9512.38;;;3.60;100.00
9460;BME280;4768;42.664;23.240;2022-12-18T12:53:22;-9509.97;;;3.51;100.00
9460;BME280;4768;42.664;23.240;2022-12-18T12:55:50;-9509.84;;;3.51;100.00
9460;BME280;4768;42.664;23.240;2022-12-18T12:58:27;-9512.22;;;3.59;100.00
9460;BME280;4768;42.664;23.240;2022-12-18T13:01:04;-9507.84;;;3.44;100.00
9460;BME280;4768;42.664;23.240;2022-12-18T13:03:48;-9508.84;;;3.47;100.00
9460;BME280;4768;42.664;23.240;2022-12-18T13:06:29;-9511.53;;;3.57;100.00
9460;BME280;4768;42.664;23.240;2022-12-18T13:09:01;-9510.41;;;3.53;100.00
9460;BME280;4768;42.664;23.240;2022-12-18T13:11:35;-9509.53;;;3.50;100.00
9460;BME280;4768;42.664;23.240;2022-12-18T13:14:22;-9512.94;;;3.62;100.00
9460;BME280;4768;42.664;23.240;2022-12-18T13:16:50;-9511.94;;;3.58;100.00
9460;BME280;4768;42.664;23.240;2022-12-18T13:19:23;-9512.22;;;3.59;100.00
9460;BME280;4768;42.664;23.240;2022-12-18T13:21:53;-9510.09;;;3.52;100.00
9460;BME280;4768;42.664;23.240;2022-12-18T13:24:25;-9510.41;;;3.53;100.00
9460;BME280;4768;42.664;23.240;2022-12-18T13:26:52;-9507.44;;;3.42;100.00
9460;BME280;4768;42.664;23.240;2022-12-18T13:32:23;-9508.13;;;3.45;100.00